sensor_id;sensor_type;location;lat;lon;timestamp;P1;durP1;ratioP1;P2;durP2;ratioP2
39792;SDS011;26080;42.264;24.536;2024-02-16T00:00:16;4.18;;;1.80;;
39792;SDS011;26080;42.264;24.536;2024-02-16T00:02:43;2.92;;;1.88;;
39792;SDS011;26080;42.264;24.536;2024-02-16T00:05:09;5.40;;;2.28;;
39792;SDS011;26080;42.264;24.536;2024-02-16T00:07:37;6.28;;;3.47;;
39792;SDS011;26080;42.264;24.536;2024-02-16T00:10:06;6.72;;;2.65;;
39792;SDS011;26080;42.264;24.536;2024-02-16T00:12:32;4.90;;;3.03;;
39792;SDS011;26080;42.264;24.536;2024-02-16T00:14:59;2.67;;;2.00;;
39792;SDS011;26080;42.264;24.536;2024-02-16T00:17:26;3.40;;;1.27;;
39792;SDS011;26080;42.264;24.536;2024-02-16T00:19:53;4.82;;;2.78;;
39792;SDS011;26080;42.264;24.536;2024-02-16T00:22:19;6.70;;;3.05;;
39792;SDS011;26080;42.264;24.536;2024-02-16T00:24:45;9.23;;;2.65;;
39792;SDS011;26080;42.264;24.536;2024-02-16T00:27:11;3.22;;;2.15;;
39792;SDS011;26080;42.264;24.536;2024-02-16T00:29:36;2.75;;;1.80;;
39792;SDS011;26080;42.264;24.536;2024-02-16T00:32:03;2.85;;;1.65;;
39792;SDS011;26080;42.264;24.536;2024-02-16T00:34:31;4.82;;;1.00;;
39792;SDS011;26080;42.264;24.536;2024-02-16T00:36:57;2.78;;;1.23;;
39792;SDS011;26080;42.264;24.536;2024-02-16T00:39:22;1.77;;;1.02;;
39792;SDS011;26080;42.264;24.536;2024-02-16T00:41:48;1.52;;;0.93;;
39792;SDS011;26080;42.264;24.536;2024-02-16T00:44:13;2.53;;;1.50;;
39792;SDS011;26080;42.264;24.536;2024-02-16T00:46:38;3.30;;;1.48;;
39792;SDS011;26080;42.264;24.536;2024-02-16T00:49:04;3.28;;;1.30;;
39792;SDS011;26080;42.264;24.536;2024-02-16T00:51:29;2.35;;;1.73;;
39792;SDS011;26080;42.264;24.536;2024-02-16T00:53:55;1.50;;;1.15;;
39792;SDS011;26080;42.264;24.536;2024-02-16T00:56:20;1.13;;;0.68;;
39792;SDS011;26080;42.264;24.536;2024-02-16T00:58:46;0.85;;;0.85;;
39792;SDS011;26080;42.264;24.536;2024-02-16T01:01:11;2.05;;;1.25;;
39792;SDS011;26080;42.264;24.536;2024-02-16T01:03:40;2.70;;;1.52;;
39792;SDS011;26080;42.264;24.536;2024-02-16T01:06:06;2.75;;;1.42;;
39792;SDS011;26080;42.264;24.536;2024-02-16T01:08:34;1.58;;;1.20;;
39792;SDS011;26080;42.264;24.536;2024-02-16T01:10:59;2.20;;;1.60;;
39792;SDS011;26080;42.264;24.536;2024-02-16T01:13:25;2.60;;;0.98;;
39792;SDS011;26080;42.264;24.536;2024-02-16T01:15:50;2.08;;;1.10;;
39792;SDS011;26080;42.264;24.536;2024-02-16T01:18:15;1.50;;;1.08;;
39792;SDS011;26080;42.264;24.536;2024-02-16T01:20:41;4.70;;;1.58;;
39792;SDS011;26080;42.264;24.536;2024-02-16T01:23:06;2.20;;;1.38;;
39792;SDS011;26080;42.264;24.536;2024-02-16T01:25:32;3.47;;;1.15;;
39792;SDS011;26080;42.264;24.536;2024-02-16T01:27:57;4.03;;;2.03;;
39792;SDS011;26080;42.264;24.536;2024-02-16T01:30:23;1.75;;;1.00;;
39792;SDS011;26080;42.264;24.536;2024-02-16T01:32:49;9.43;;;1.42;;
39792;SDS011;26080;42.264;24.536;2024-02-16T01:35:14;2.92;;;1.58;;
39792;SDS011;26080;42.264;24.536;2024-02-16T01:37:40;2.92;;;1.40;;
39792;SDS011;26080;42.264;24.536;2024-02-16T01:40:07;2.00;;;0.95;;
39792;SDS011;26080;42.264;24.536;2024-02-16T01:42:38;2.55;;;1.65;;
39792;SDS011;26080;42.264;24.536;2024-02-16T01:45:04;4.10;;;1.67;;
39792;SDS011;26080;42.264;24.536;2024-02-16T01:47:30;1.83;;;0.95;;
39792;SDS011;26080;42.264;24.536;2024-02-16T01:49:55;3.13;;;1.70;;
39792;SDS011;26080;42.264;24.536;2024-02-16T01:52:21;2.97;;;1.48;;
39792;SDS011;26080;42.264;24.536;2024-02-16T01:54:46;3.70;;;2.20;;
39792;SDS011;26080;42.264;24.536;2024-02-16T01:57:12;2.42;;;1.75;;
39792;SDS011;26080;42.264;24.536;2024-02-16T01:59:37;1.58;;;0.70;;
39792;SDS011;26080;42.264;24.536;2024-02-16T02:02:05;3.15;;;1.45;;
39792;SDS011;26080;42.264;24.536;2024-02-16T02:04:30;2.58;;;1.38;;
39792;SDS011;26080;42.264;24.536;2024-02-16T02:06:56;2.55;;;1.75;;
39792;SDS011;26080;42.264;24.536;2024-02-16T02:09:21;1.52;;;0.68;;
39792;SDS011;26080;42.264;24.536;2024-02-16T02:11:47;2.50;;;1.02;;
39792;SDS011;26080;42.264;24.536;2024-02-16T02:14:12;1.38;;;1.05;;
39792;SDS011;26080;42.264;24.536;2024-02-16T02:16:37;4.40;;;1.60;;
39792;SDS011;26080;42.264;24.536;2024-02-16T02:19:03;1.42;;;1.00;;
39792;SDS011;26080;42.264;24.536;2024-02-16T02:21:28;4.72;;;2.00;;
39792;SDS011;26080;42.264;24.536;2024-02-16T02:23:54;2.13;;;1.10;;
39792;SDS011;26080;42.264;24.536;2024-02-16T02:26:20;1.23;;;1.00;;
39792;SDS011;26080;42.264;24.536;2024-02-16T02:28:46;1.70;;;1.05;;
39792;SDS011;26080;42.264;24.536;2024-02-16T02:31:11;1.25;;;0.95;;
39792;SDS011;26080;42.264;24.536;2024-02-16T02:33:37;1.67;;;1.23;;
39792;SDS011;26080;42.264;24.536;2024-02-16T02:36:03;1.60;;;0.85;;
39792;SDS011;26080;42.264;24.536;2024-02-16T02:38:30;1.73;;;0.95;;
39792;SDS011;26080;42.264;24.536;2024-02-16T02:40:55;2.53;;;1.52;;
39792;SDS011;26080;42.264;24.536;2024-02-16T02:43:21;1.73;;;0.75;;
39792;SDS011;26080;42.264;24.536;2024-02-16T02:45:47;1.48;;;0.82;;
39792;SDS011;26080;42.264;24.536;2024-02-16T02:48:12;1.55;;;0.80;;
39792;SDS011;26080;42.264;24.536;2024-02-16T02:50:38;2.10;;;1.35;;
39792;SDS011;26080;42.264;24.536;2024-02-16T02:53:03;1.95;;;1.25;;
39792;SDS011;26080;42.264;24.536;2024-02-16T02:55:29;1.63;;;1.40;;
39792;SDS011;26080;42.264;24.536;2024-02-16T02:57:54;3.38;;;1.77;;
39792;SDS011;26080;42.264;24.536;2024-02-16T03:00:19;1.88;;;1.27;;
39792;SDS011;26080;42.264;24.536;2024-02-16T03:02:45;1.00;;;0.90;;
39792;SDS011;26080;42.264;24.536;2024-02-16T03:05:11;2.78;;;1.80;;
39792;SDS011;26080;42.264;24.536;2024-02-16T03:07:36;1.10;;;0.88;;
39792;SDS011;26080;42.264;24.536;2024-02-16T03:10:02;2.10;;;0.82;;
39792;SDS011;26080;42.264;24.536;2024-02-16T03:12:28;2.10;;;1.42;;
39792;SDS011;26080;42.264;24.536;2024-02-16T03:14:54;2.63;;;1.42;;
39792;SDS011;26080;42.264;24.536;2024-02-16T03:17:19;2.30;;;1.15;;
39792;SDS011;26080;42.264;24.536;2024-02-16T03:19:45;2.08;;;1.15;;
39792;SDS011;26080;42.264;24.536;2024-02-16T03:22:10;5.10;;;1.67;;
39792;SDS011;26080;42.264;24.536;2024-02-16T03:24:35;0.73;;;0.68;;
39792;SDS011;26080;42.264;24.536;2024-02-16T03:27:01;3.03;;;1.45;;
39792;SDS011;26080;42.264;24.536;2024-02-16T03:29:27;2.42;;;1.65;;
39792;SDS011;26080;42.264;24.536;2024-02-16T03:31:52;2.17;;;1.33;;
39792;SDS011;26080;42.264;24.536;2024-02-16T03:34:18;2.17;;;0.90;;
39792;SDS011;26080;42.264;24.536;2024-02-16T03:36:43;3.92;;;1.55;;
39792;SDS011;26080;42.264;24.536;2024-02-16T03:39:09;1.75;;;1.27;;
39792;SDS011;26080;42.264;24.536;2024-02-16T03:41:34;1.58;;;1.13;;
39792;SDS011;26080;42.264;24.536;2024-02-16T03:44:00;1.95;;;0.85;;
39792;SDS011;26080;42.264;24.536;2024-02-16T03:46:26;2.03;;;1.20;;
39792;SDS011;26080;42.264;24.536;2024-02-16T03:48:52;3.65;;;1.48;;
39792;SDS011;26080;42.264;24.536;2024-02-16T03:51:17;2.00;;;0.98;;
39792;SDS011;26080;42.264;24.536;2024-02-16T03:53:43;2.88;;;1.65;;
39792;SDS011;26080;42.264;24.536;2024-02-16T03:56:11;1.88;;;1.65;;
39792;SDS011;26080;42.264;24.536;2024-02-16T03:58:37;3.45;;;2.72;;
39792;SDS011;26080;42.264;24.536;2024-02-16T04:01:03;2.33;;;1.58;;
39792;SDS011;26080;42.264;24.536;2024-02-16T04:03:32;2.03;;;1.20;;
39792;SDS011;26080;42.264;24.536;2024-02-16T04:05:57;1.00;;;0.85;;
39792;SDS011;26080;42.264;24.536;2024-02-16T04:08:24;2.17;;;1.75;;
39792;SDS011;26080;42.264;24.536;2024-02-16T04:10:50;2.97;;;1.33;;
39792;SDS011;26080;42.264;24.536;2024-02-16T04:13:15;3.47;;;1.08;;
39792;SDS011;26080;42.264;24.536;2024-02-16T04:15:41;6.80;;;1.83;;
39792;SDS011;26080;42.264;24.536;2024-02-16T04:18:06;3.63;;;1.75;;
39792;SDS011;26080;42.264;24.536;2024-02-16T04:20:32;2.95;;;1.77;;
39792;SDS011;26080;42.264;24.536;2024-02-16T04:22:57;1.00;;;0.77;;
39792;SDS011;26080;42.264;24.536;2024-02-16T04:25:22;1.15;;;0.90;;
39792;SDS011;26080;42.264;24.536;2024-02-16T04:27:48;2.53;;;1.00;;
39792;SDS011;26080;42.264;24.536;2024-02-16T04:30:14;3.72;;;1.40;;
39792;SDS011;26080;42.264;24.536;2024-02-16T04:32:39;2.58;;;1.75;;
39792;SDS011;26080;42.264;24.536;2024-02-16T04:35:05;2.45;;;1.13;;
39792;SDS011;26080;42.264;24.536;2024-02-16T04:37:30;2.58;;;1.10;;
39792;SDS011;26080;42.264;24.536;2024-02-16T04:39:56;3.60;;;1.90;;
39792;SDS011;26080;42.264;24.536;2024-02-16T04:42:22;3.33;;;1.50;;
39792;SDS011;26080;42.264;24.536;2024-02-16T04:44:47;2.40;;;1.63;;
39792;SDS011;26080;42.264;24.536;2024-02-16T04:47:13;2.33;;;1.50;;
39792;SDS011;26080;42.264;24.536;2024-02-16T04:49:39;2.47;;;2.17;;
39792;SDS011;26080;42.264;24.536;2024-02-16T04:52:04;8.85;;;4.82;;
39792;SDS011;26080;42.264;24.536;2024-02-16T04:54:30;15.25;;;5.68;;
39792;SDS011;26080;42.264;24.536;2024-02-16T04:56:55;12.50;;;5.60;;
39792;SDS011;26080;42.264;24.536;2024-02-16T04:59:21;2.75;;;1.90;;
39792;SDS011;26080;42.264;24.536;2024-02-16T05:01:46;3.80;;;2.75;;
39792;SDS011;26080;42.264;24.536;2024-02-16T05:04:12;4.65;;;2.15;;
39792;SDS011;26080;42.264;24.536;2024-02-16T05:06:41;2.50;;;1.63;;
39792;SDS011;26080;42.264;24.536;2024-02-16T05:09:07;1.98;;;1.70;;
39792;SDS011;26080;42.264;24.536;2024-02-16T05:11:33;5.80;;;2.88;;
39792;SDS011;26080;42.264;24.536;2024-02-16T05:13:59;4.55;;;2.45;;
39792;SDS011;26080;42.264;24.536;2024-02-16T05:16:25;4.57;;;2.50;;
39792;SDS011;26080;42.264;24.536;2024-02-16T05:18:51;6.40;;;4.25;;
39792;SDS011;26080;42.264;24.536;2024-02-16T05:21:16;7.18;;;4.35;;
39792;SDS011;26080;42.264;24.536;2024-02-16T05:23:42;5.95;;;3.50;;
39792;SDS011;26080;42.264;24.536;2024-02-16T05:26:07;4.07;;;2.53;;
39792;SDS011;26080;42.264;24.536;2024-02-16T05:28:33;2.22;;;1.17;;
39792;SDS011;26080;42.264;24.536;2024-02-16T05:31:03;4.70;;;2.47;;
39792;SDS011;26080;42.264;24.536;2024-02-16T05:33:39;3.35;;;1.45;;
39792;SDS011;26080;42.264;24.536;2024-02-16T05:36:05;5.68;;;2.47;;
39792;SDS011;26080;42.264;24.536;2024-02-16T05:38:31;5.43;;;1.98;;
39792;SDS011;26080;42.264;24.536;2024-02-16T05:40:59;5.72;;;3.42;;
39792;SDS011;26080;42.264;24.536;2024-02-16T05:43:25;4.07;;;1.90;;
39792;SDS011;26080;42.264;24.536;2024-02-16T05:45:51;7.25;;;4.00;;
39792;SDS011;26080;42.264;24.536;2024-02-16T05:48:16;4.95;;;2.60;;
39792;SDS011;26080;42.264;24.536;2024-02-16T05:50:42;5.88;;;3.38;;
39792;SDS011;26080;42.264;24.536;2024-02-16T05:53:09;3.50;;;2.00;;
39792;SDS011;26080;42.264;24.536;2024-02-16T05:55:36;4.60;;;2.08;;
39792;SDS011;26080;42.264;24.536;2024-02-16T05:58:01;1.40;;;1.10;;
39792;SDS011;26080;42.264;24.536;2024-02-16T06:00:30;3.00;;;1.63;;
39792;SDS011;26080;42.264;24.536;2024-02-16T06:02:58;2.35;;;1.60;;
39792;SDS011;26080;42.264;24.536;2024-02-16T06:05:23;4.97;;;2.58;;
39792;SDS011;26080;42.264;24.536;2024-02-16T06:07:49;7.78;;;3.95;;
39792;SDS011;26080;42.264;24.536;2024-02-16T06:10:14;13.77;;;6.28;;
39792;SDS011;26080;42.264;24.536;2024-02-16T06:12:40;34.25;;;13.98;;
39792;SDS011;26080;42.264;24.536;2024-02-16T06:15:05;35.15;;;13.95;;
39792;SDS011;26080;42.264;24.536;2024-02-16T06:17:31;48.05;;;25.63;;
39792;SDS011;26080;42.264;24.536;2024-02-16T06:19:57;102.70;;;46.90;;
39792;SDS011;26080;42.264;24.536;2024-02-16T06:22:22;110.25;;;45.40;;
39792;SDS011;26080;42.264;24.536;2024-02-16T06:24:48;73.80;;;26.88;;
39792;SDS011;26080;42.264;24.536;2024-02-16T06:27:13;103.47;;;34.88;;
39792;SDS011;26080;42.264;24.536;2024-02-16T06:29:40;38.95;;;15.48;;
39792;SDS011;26080;42.264;24.536;2024-02-16T06:32:05;23.02;;;9.55;;
39792;SDS011;26080;42.264;24.536;2024-02-16T06:34:31;8.43;;;4.03;;
39792;SDS011;26080;42.264;24.536;2024-02-16T06:36:57;6.45;;;3.25;;
39792;SDS011;26080;42.264;24.536;2024-02-16T06:39:22;2.97;;;2.05;;
39792;SDS011;26080;42.264;24.536;2024-02-16T06:41:47;4.03;;;1.83;;
39792;SDS011;26080;42.264;24.536;2024-02-16T06:44:16;3.88;;;1.95;;
39792;SDS011;26080;42.264;24.536;2024-02-16T06:46:42;5.07;;;3.42;;
39792;SDS011;26080;42.264;24.536;2024-02-16T06:49:08;5.88;;;3.30;;
39792;SDS011;26080;42.264;24.536;2024-02-16T06:51:34;10.13;;;3.92;;
39792;SDS011;26080;42.264;24.536;2024-02-16T06:54:00;5.80;;;3.17;;
39792;SDS011;26080;42.264;24.536;2024-02-16T06:56:26;5.65;;;2.67;;
39792;SDS011;26080;42.264;24.536;2024-02-16T06:58:55;2.35;;;1.85;;
39792;SDS011;26080;42.264;24.536;2024-02-16T07:01:20;3.17;;;1.45;;
39792;SDS011;26080;42.264;24.536;2024-02-16T07:03:46;10.95;;;2.63;;
39792;SDS011;26080;42.264;24.536;2024-02-16T07:06:11;4.22;;;2.08;;
39792;SDS011;26080;42.264;24.536;2024-02-16T07:08:42;19.95;;;6.65;;
39792;SDS011;26080;42.264;24.536;2024-02-16T07:11:11;3.40;;;2.45;;
39792;SDS011;26080;42.264;24.536;2024-02-16T07:13:38;3.83;;;1.45;;
39792;SDS011;26080;42.264;24.536;2024-02-16T07:16:04;4.03;;;1.58;;
39792;SDS011;26080;42.264;24.536;2024-02-16T07:18:31;4.03;;;1.75;;
39792;SDS011;26080;42.264;24.536;2024-02-16T07:20:58;2.08;;;1.38;;
39792;SDS011;26080;42.264;24.536;2024-02-16T07:23:24;4.13;;;2.00;;
39792;SDS011;26080;42.264;24.536;2024-02-16T07:25:49;4.93;;;1.63;;
39792;SDS011;26080;42.264;24.536;2024-02-16T07:28:15;4.38;;;1.92;;
39792;SDS011;26080;42.264;24.536;2024-02-16T07:30:41;3.08;;;1.75;;
39792;SDS011;26080;42.264;24.536;2024-02-16T07:33:07;3.25;;;1.80;;
39792;SDS011;26080;42.264;24.536;2024-02-16T07:35:35;2.42;;;1.50;;
39792;SDS011;26080;42.264;24.536;2024-02-16T07:38:01;1.90;;;1.02;;
39792;SDS011;26080;42.264;24.536;2024-02-16T07:40:27;4.57;;;1.60;;
39792;SDS011;26080;42.264;24.536;2024-02-16T07:42:53;3.75;;;1.80;;
39792;SDS011;26080;42.264;24.536;2024-02-16T07:45:18;2.67;;;1.58;;
39792;SDS011;26080;42.264;24.536;2024-02-16T07:47:45;5.93;;;2.83;;
39792;SDS011;26080;42.264;24.536;2024-02-16T07:50:11;14.23;;;7.15;;
39792;SDS011;26080;42.264;24.536;2024-02-16T07:52:37;9.68;;;6.60;;
39792;SDS011;26080;42.264;24.536;2024-02-16T07:55:03;6.63;;;3.22;;
39792;SDS011;26080;42.264;24.536;2024-02-16T07:57:30;6.20;;;3.30;;
39792;SDS011;26080;42.264;24.536;2024-02-16T07:59:56;8.20;;;4.65;;
39792;SDS011;26080;42.264;24.536;2024-02-16T08:02:21;10.98;;;4.63;;
39792;SDS011;26080;42.264;24.536;2024-02-16T08:04:47;11.43;;;5.13;;
39792;SDS011;26080;42.264;24.536;2024-02-16T08:07:14;8.88;;;4.85;;
39792;SDS011;26080;42.264;24.536;2024-02-16T08:09:39;6.57;;;2.25;;
39792;SDS011;26080;42.264;24.536;2024-02-16T08:12:05;9.82;;;2.15;;
39792;SDS011;26080;42.264;24.536;2024-02-16T08:14:34;5.10;;;2.17;;
39792;SDS011;26080;42.264;24.536;2024-02-16T08:17:00;3.58;;;2.15;;
39792;SDS011;26080;42.264;24.536;2024-02-16T08:19:31;5.93;;;2.30;;
39792;SDS011;26080;42.264;24.536;2024-02-16T08:21:59;3.13;;;1.67;;
39792;SDS011;26080;42.264;24.536;2024-02-16T08:24:24;4.07;;;1.90;;
39792;SDS011;26080;42.264;24.536;2024-02-16T08:26:50;4.40;;;1.58;;
39792;SDS011;26080;42.264;24.536;2024-02-16T08:29:16;3.92;;;1.92;;
39792;SDS011;26080;42.264;24.536;2024-02-16T08:31:41;4.32;;;2.05;;
39792;SDS011;26080;42.264;24.536;2024-02-16T08:34:08;5.60;;;2.83;;
39792;SDS011;26080;42.264;24.536;2024-02-16T08:36:35;25.10;;;3.53;;
39792;SDS011;26080;42.264;24.536;2024-02-16T08:39:01;3.10;;;1.92;;
39792;SDS011;26080;42.264;24.536;2024-02-16T08:41:26;4.10;;;2.20;;
39792;SDS011;26080;42.264;24.536;2024-02-16T08:43:52;4.55;;;1.67;;
39792;SDS011;26080;42.264;24.536;2024-02-16T08:46:17;3.00;;;1.40;;
39792;SDS011;26080;42.264;24.536;2024-02-16T08:48:44;3.95;;;1.83;;
39792;SDS011;26080;42.264;24.536;2024-02-16T08:51:10;3.00;;;1.27;;
39792;SDS011;26080;42.264;24.536;2024-02-16T08:53:36;3.50;;;1.55;;
39792;SDS011;26080;42.264;24.536;2024-02-16T08:56:01;11.38;;;1.23;;
39792;SDS011;26080;42.264;24.536;2024-02-16T08:58:27;2.97;;;1.50;;
39792;SDS011;26080;42.264;24.536;2024-02-16T09:00:52;6.30;;;3.50;;
39792;SDS011;26080;42.264;24.536;2024-02-16T09:03:17;3.50;;;1.98;;
39792;SDS011;26080;42.264;24.536;2024-02-16T09:05:43;2.97;;;1.40;;
39792;SDS011;26080;42.264;24.536;2024-02-16T09:08:09;3.45;;;1.52;;
39792;SDS011;26080;42.264;24.536;2024-02-16T09:10:34;4.15;;;1.70;;
39792;SDS011;26080;42.264;24.536;2024-02-16T09:13:01;3.47;;;1.77;;
39792;SDS011;26080;42.264;24.536;2024-02-16T09:15:26;3.67;;;1.63;;
39792;SDS011;26080;42.264;24.536;2024-02-16T09:17:51;6.32;;;1.67;;
39792;SDS011;26080;42.264;24.536;2024-02-16T09:20:18;4.93;;;2.65;;
39792;SDS011;26080;42.264;24.536;2024-02-16T09:22:47;2.80;;;1.02;;
39792;SDS011;26080;42.264;24.536;2024-02-16T09:25:14;3.25;;;1.10;;
39792;SDS011;26080;42.264;24.536;2024-02-16T09:27:39;2.65;;;1.52;;
39792;SDS011;26080;42.264;24.536;2024-02-16T09:30:06;4.47;;;1.52;;
39792;SDS011;26080;42.264;24.536;2024-02-16T09:32:32;2.83;;;1.58;;
39792;SDS011;26080;42.264;24.536;2024-02-16T09:34:57;3.63;;;1.48;;
39792;SDS011;26080;42.264;24.536;2024-02-16T09:37:23;11.07;;;4.72;;
39792;SDS011;26080;42.264;24.536;2024-02-16T09:39:48;3.22;;;1.55;;
39792;SDS011;26080;42.264;24.536;2024-02-16T09:42:14;2.00;;;1.08;;
39792;SDS011;26080;42.264;24.536;2024-02-16T09:44:39;2.55;;;1.10;;
39792;SDS011;26080;42.264;24.536;2024-02-16T09:47:06;5.15;;;1.90;;
39792;SDS011;26080;42.264;24.536;2024-02-16T09:49:37;3.08;;;1.38;;
39792;SDS011;26080;42.264;24.536;2024-02-16T09:52:02;4.07;;;1.48;;
39792;SDS011;26080;42.264;24.536;2024-02-16T09:54:32;2.25;;;1.02;;
39792;SDS011;26080;42.264;24.536;2024-02-16T09:56:59;4.28;;;1.17;;
39792;SDS011;26080;42.264;24.536;2024-02-16T09:59:24;2.13;;;1.13;;
39792;SDS011;26080;42.264;24.536;2024-02-16T10:01:58;2.38;;;1.60;;
39792;SDS011;26080;42.264;24.536;2024-02-16T10:04:25;2.30;;;1.08;;
39792;SDS011;26080;42.264;24.536;2024-02-16T10:06:51;4.07;;;1.20;;
39792;SDS011;26080;42.264;24.536;2024-02-16T10:09:24;2.38;;;1.15;;
39792;SDS011;26080;42.264;24.536;2024-02-16T10:11:51;1.48;;;1.38;;
39792;SDS011;26080;42.264;24.536;2024-02-16T10:14:16;2.13;;;0.85;;
39792;SDS011;26080;42.264;24.536;2024-02-16T10:16:44;4.68;;;1.58;;
39792;SDS011;26080;42.264;24.536;2024-02-16T10:19:10;4.03;;;1.40;;
39792;SDS011;26080;42.264;24.536;2024-02-16T10:21:36;1.58;;;1.02;;
39792;SDS011;26080;42.264;24.536;2024-02-16T10:24:05;3.88;;;1.98;;
39792;SDS011;26080;42.264;24.536;2024-02-16T10:26:33;3.63;;;1.48;;
39792;SDS011;26080;42.264;24.536;2024-02-16T10:29:03;2.55;;;1.50;;
39792;SDS011;26080;42.264;24.536;2024-02-16T10:31:29;4.15;;;1.85;;
39792;SDS011;26080;42.264;24.536;2024-02-16T10:34:02;9.35;;;2.75;;
39792;SDS011;26080;42.264;24.536;2024-02-16T10:36:31;8.68;;;1.70;;
39792;SDS011;26080;42.264;24.536;2024-02-16T10:38:57;7.63;;;2.03;;
39792;SDS011;26080;42.264;24.536;2024-02-16T10:41:27;7.05;;;1.63;;
39792;SDS011;26080;42.264;24.536;2024-02-16T10:43:56;4.13;;;1.67;;
39792;SDS011;26080;42.264;24.536;2024-02-16T10:46:22;2.83;;;1.15;;
39792;SDS011;26080;42.264;24.536;2024-02-16T10:48:51;3.58;;;1.98;;
39792;SDS011;26080;42.264;24.536;2024-02-16T10:51:17;2.67;;;1.00;;
39792;SDS011;26080;42.264;24.536;2024-02-16T10:53:46;10.90;;;3.10;;
39792;SDS011;26080;42.264;24.536;2024-02-16T10:56:13;29.98;;;9.20;;
39792;SDS011;26080;42.264;24.536;2024-02-16T10:58:39;6.05;;;2.83;;
39792;SDS011;26080;42.264;24.536;2024-02-16T11:01:14;3.25;;;1.58;;
39792;SDS011;26080;42.264;24.536;2024-02-16T11:03:40;9.05;;;2.72;;
39792;SDS011;26080;42.264;24.536;2024-02-16T11:06:14;3.55;;;1.50;;
39792;SDS011;26080;42.264;24.536;2024-02-16T11:08:41;7.90;;;2.90;;
39792;SDS011;26080;42.264;24.536;2024-02-16T11:11:07;3.80;;;1.77;;
39792;SDS011;26080;42.264;24.536;2024-02-16T11:13:35;8.40;;;3.35;;
39792;SDS011;26080;42.264;24.536;2024-02-16T11:16:02;8.35;;;2.40;;
39792;SDS011;26080;42.264;24.536;2024-02-16T11:18:30;5.65;;;1.58;;
39792;SDS011;26080;42.264;24.536;2024-02-16T11:20:59;11.50;;;2.10;;
39792;SDS011;26080;42.264;24.536;2024-02-16T11:23:29;3.65;;;1.50;;
39792;SDS011;26080;42.264;24.536;2024-02-16T11:26:05;6.50;;;1.40;;
39792;SDS011;26080;42.264;24.536;2024-02-16T11:28:36;5.88;;;1.67;;
39792;SDS011;26080;42.264;24.536;2024-02-16T11:31:03;4.13;;;1.42;;
39792;SDS011;26080;42.264;24.536;2024-02-16T11:33:29;1.70;;;0.82;;
39792;SDS011;26080;42.264;24.536;2024-02-16T11:35:55;9.00;;;2.80;;
39792;SDS011;26080;42.264;24.536;2024-02-16T11:38:32;2.55;;;1.10;;
39792;SDS011;26080;42.264;24.536;2024-02-16T11:41:04;2.95;;;1.52;;
39792;SDS011;26080;42.264;24.536;2024-02-16T11:43:35;3.55;;;1.02;;
39792;SDS011;26080;42.264;24.536;2024-02-16T11:46:11;3.35;;;1.17;;
39792;SDS011;26080;42.264;24.536;2024-02-16T11:48:38;1.88;;;0.93;;
39792;SDS011;26080;42.264;24.536;2024-02-16T11:51:03;17.35;;;1.75;;
39792;SDS011;26080;42.264;24.536;2024-02-16T11:53:29;3.72;;;0.80;;
39792;SDS011;26080;42.264;24.536;2024-02-16T11:55:55;3.95;;;1.60;;
39792;SDS011;26080;42.264;24.536;2024-02-16T11:58:21;1.80;;;0.70;;
39792;SDS011;26080;42.264;24.536;2024-02-16T12:00:47;2.63;;;0.85;;
39792;SDS011;26080;42.264;24.536;2024-02-16T12:03:20;2.42;;;1.08;;
39792;SDS011;26080;42.264;24.536;2024-02-16T12:08:19;27.48;;;9.38;;
39792;SDS011;26080;42.264;24.536;2024-02-16T12:10:48;6.45;;;2.95;;
39792;SDS011;26080;42.264;24.536;2024-02-16T12:13:17;8.65;;;2.00;;
39792;SDS011;26080;42.264;24.536;2024-02-16T12:15:44;2.53;;;0.93;;
39792;SDS011;26080;42.264;24.536;2024-02-16T12:18:24;1.48;;;0.60;;
39792;SDS011;26080;42.264;24.536;2024-02-16T12:21:00;0.43;;;0.30;;
39792;SDS011;26080;42.264;24.536;2024-02-16T12:23:27;4.50;;;1.33;;
39792;SDS011;26080;42.264;24.536;2024-02-16T12:25:55;1.05;;;0.47;;
39792;SDS011;26080;42.264;24.536;2024-02-16T12:28:25;0.85;;;0.40;;
39792;SDS011;26080;42.264;24.536;2024-02-16T12:30:57;1.45;;;0.60;;
39792;SDS011;26080;42.264;24.536;2024-02-16T12:33:23;1.20;;;0.63;;
39792;SDS011;26080;42.264;24.536;2024-02-16T12:35:49;0.55;;;0.52;;
39792;SDS011;26080;42.264;24.536;2024-02-16T12:38:15;2.08;;;1.10;;
39792;SDS011;26080;42.264;24.536;2024-02-16T12:40:42;0.93;;;0.50;;
39792;SDS011;26080;42.264;24.536;2024-02-16T12:43:08;1.67;;;0.70;;
39792;SDS011;26080;42.264;24.536;2024-02-16T12:45:36;0.82;;;0.50;;
39792;SDS011;26080;42.264;24.536;2024-02-16T12:48:02;0.68;;;0.30;;
39792;SDS011;26080;42.264;24.536;2024-02-16T12:50:29;2.15;;;0.98;;
39792;SDS011;26080;42.264;24.536;2024-02-16T12:52:55;46.78;;;10.85;;
39792;SDS011;26080;42.264;24.536;2024-02-16T12:55:22;3.40;;;1.42;;
39792;SDS011;26080;42.264;24.536;2024-02-16T12:57:48;0.77;;;0.60;;
39792;SDS011;26080;42.264;24.536;2024-02-16T13:00:17;1.45;;;0.77;;
39792;SDS011;26080;42.264;24.536;2024-02-16T13:02:43;0.70;;;0.60;;
39792;SDS011;26080;42.264;24.536;2024-02-16T13:05:08;1.92;;;0.70;;
39792;SDS011;26080;42.264;24.536;2024-02-16T13:07:35;1.30;;;0.50;;
39792;SDS011;26080;42.264;24.536;2024-02-16T13:10:03;1.13;;;0.65;;
39792;SDS011;26080;42.264;24.536;2024-02-16T13:12:28;0.60;;;0.47;;
39792;SDS011;26080;42.264;24.536;2024-02-16T13:14:54;0.85;;;0.63;;
39792;SDS011;26080;42.264;24.536;2024-02-16T13:17:19;1.23;;;0.50;;
39792;SDS011;26080;42.264;24.536;2024-02-16T13:19:45;2.42;;;1.13;;
39792;SDS011;26080;42.264;24.536;2024-02-16T13:22:10;1.60;;;0.52;;
39792;SDS011;26080;42.264;24.536;2024-02-16T13:24:36;3.97;;;1.00;;
39792;SDS011;26080;42.264;24.536;2024-02-16T13:27:02;1.17;;;0.65;;
39792;SDS011;26080;42.264;24.536;2024-02-16T13:29:31;4.15;;;1.70;;
39792;SDS011;26080;42.264;24.536;2024-02-16T13:31:57;1.38;;;0.88;;
39792;SDS011;26080;42.264;24.536;2024-02-16T13:34:22;1.30;;;0.65;;
39792;SDS011;26080;42.264;24.536;2024-02-16T13:36:48;1.23;;;0.98;;
39792;SDS011;26080;42.264;24.536;2024-02-16T13:39:14;0.75;;;0.40;;
39792;SDS011;26080;42.264;24.536;2024-02-16T13:41:41;2.65;;;1.05;;
39792;SDS011;26080;42.264;24.536;2024-02-16T13:44:08;3.00;;;1.33;;
39792;SDS011;26080;42.264;24.536;2024-02-16T13:46:34;1.05;;;0.73;;
39792;SDS011;26080;42.264;24.536;2024-02-16T13:49:00;2.33;;;0.68;;
39792;SDS011;26080;42.264;24.536;2024-02-16T13:51:25;3.60;;;1.95;;
39792;SDS011;26080;42.264;24.536;2024-02-16T13:53:51;7.80;;;2.40;;
39792;SDS011;26080;42.264;24.536;2024-02-16T13:56:17;1.70;;;0.70;;
39792;SDS011;26080;42.264;24.536;2024-02-16T13:58:43;1.27;;;0.90;;
39792;SDS011;26080;42.264;24.536;2024-02-16T14:01:08;1.65;;;0.88;;
39792;SDS011;26080;42.264;24.536;2024-02-16T14:03:35;3.92;;;0.82;;
39792;SDS011;26080;42.264;24.536;2024-02-16T14:06:01;1.23;;;1.02;;
39792;SDS011;26080;42.264;24.536;2024-02-16T14:08:27;1.13;;;0.70;;
39792;SDS011;26080;42.264;24.536;2024-02-16T14:10:53;1.27;;;0.73;;
39792;SDS011;26080;42.264;24.536;2024-02-16T14:13:18;1.63;;;0.95;;
39792;SDS011;26080;42.264;24.536;2024-02-16T14:15:44;3.83;;;0.90;;
39792;SDS011;26080;42.264;24.536;2024-02-16T14:18:10;2.30;;;0.60;;
39792;SDS011;26080;42.264;24.536;2024-02-16T14:20:36;1.25;;;0.55;;
39792;SDS011;26080;42.264;24.536;2024-02-16T14:23:01;1.27;;;0.55;;
39792;SDS011;26080;42.264;24.536;2024-02-16T14:25:28;0.70;;;0.60;;
39792;SDS011;26080;42.264;24.536;2024-02-16T14:27:53;1.30;;;0.60;;
39792;SDS011;26080;42.264;24.536;2024-02-16T14:30:20;0.63;;;0.43;;